Ixonia, Wisconsin
Current Conditions -  °F | °C
As of 3:35 AM on Tuesday 21 Oct 2014 (Local Time) from KRYV Reporting Station
Overcast Overcast  
Wind Chill: 42°   Ceiling: 4400
Heat Index: 46°   Visibility: 10mi
Dew Point: 39°   Wind: 8mph
Humidity: 76%   Direction: 360°N
Pressure: 30.06"   Gusts: NA
Location:  43.14°N, 88.6°W
Report Text: KRYV 210835Z AUTO 36007KT 10SM OVC044 08/04 A3006 RMK AO2 T00770037
Loading
Personal Weather Stations






























Interactive Weather Map
Tropical Storm Tracking
New forecast layout! Learn more

10-Day Weather Forecast

Advertisements
Track Severe Weather on mobile